Time;durP1;ratioP1;P1;durP2;ratioP2;P2;SDS_P1;SDS_P2;PMS_P1;PMS_P2;Temp;Humidity;BMP_temperature;BMP_pressure;BME280_temperature;BME280_humidity;BME280_pressure;Samples;Min_cycle;Max_cycle;Signal;HPM_P1;HPM_P2
2021/09/06 00:02:14;;;;;;;5.93;2.47;;;8.70;1.00;;;;;;4367625;28;654967;-67
2021/09/06 00:05:06;;;;;;;5.27;2.47;;;8.70;1.00;;;;;;4359240;28;654430;-67
2021/09/06 00:07:55;;;;;;;6.87;2.10;;;8.70;1.00;;;;;;4375016;28;654443;-67
2021/09/06 00:10:46;;;;;;;4.80;2.33;;;8.70;1.00;;;;;;4364923;28;654489;-67
2021/09/06 00:13:34;;;;;;;4.73;1.90;;;8.70;1.00;;;;;;4379037;28;654730;-67
2021/09/06 00:16:22;;;;;;;3.80;2.17;;;8.70;1.00;;;;;;4389173;28;654537;-67
2021/09/06 00:19:11;;;;;;;5.17;2.33;;;8.70;1.00;;;;;;4390653;28;655887;-67
2021/09/06 00:21:59;;;;;;;5.53;2.10;;;8.60;1.00;;;;;;4365193;28;655353;-67
2021/09/06 00:24:46;;;;;;;4.77;2.33;;;8.60;1.00;;;;;;4386579;28;654807;-67
2021/09/06 00:27:34;;;;;;;4.57;2.37;;;8.60;1.00;;;;;;4373930;28;655351;-68
2021/09/06 00:30:21;;;;;;;5.77;2.70;;;8.60;1.00;;;;;;4372458;28;654906;-67
2021/09/06 00:33:09;;;;;;;3.43;2.20;;;8.60;1.00;;;;;;4373377;28;655823;-67
2021/09/06 00:35:58;;;;;;;4.60;2.50;;;8.50;1.00;;;;;;4397442;28;654838;-67
2021/09/06 00:38:46;;;;;;;7.57;2.23;;;8.50;1.00;;;;;;4371488;28;655654;-67
2021/09/06 00:41:33;;;;;;;5.80;2.23;;;8.50;1.00;;;;;;4360987;28;654534;-67
2021/09/06 00:44:21;;;;;;;6.63;2.50;;;8.50;1.00;;;;;;4395661;28;654441;-67
2021/09/06 00:47:09;;;;;;;5.10;2.17;;;8.50;1.00;;;;;;4374425;28;654425;-67
2021/09/06 00:49:56;;;;;;;6.47;1.97;;;8.50;1.00;;;;;;4388278;28;654618;-67
2021/09/06 00:52:46;;;;;;;5.43;2.33;;;8.50;1.00;;;;;;4363399;28;654489;-67
2021/09/06 00:55:33;;;;;;;4.93;2.20;;;8.50;1.00;;;;;;4377138;28;654640;-67
2021/09/06 00:58:21;;;;;;;7.27;2.50;;;8.40;1.00;;;;;;4388047;28;656315;-67
2021/09/06 01:01:08;;;;;;;4.90;2.43;;;8.40;1.00;;;;;;4365312;28;654265;-67
2021/09/06 01:03:56;;;;;;;6.73;2.33;;;8.40;1.00;;;;;;4400185;28;655310;-67
2021/09/06 01:06:43;;;;;;;5.27;2.20;;;8.30;1.00;;;;;;4377093;28;654460;-67
2021/09/06 01:09:32;;;;;;;6.13;2.90;;;8.20;1.00;;;;;;4394534;28;654731;-67
2021/09/06 01:12:20;;;;;;;5.37;2.20;;;8.10;1.00;;;;;;4357250;28;655532;-67
2021/09/06 01:15:08;;;;;;;5.20;2.43;;;8.10;1.00;;;;;;4373207;28;654651;-67
2021/09/06 01:17:56;;;;;;;5.23;2.30;;;8.10;1.00;;;;;;4393653;28;654447;-67
2021/09/06 01:20:43;;;;;;;4.83;2.10;;;8.10;1.00;;;;;;4377599;28;654565;-67
2021/09/06 01:23:31;;;;;;;4.87;2.30;;;8.10;1.00;;;;;;4396416;28;654819;-67
2021/09/06 01:26:20;;;;;;;4.80;2.17;;;8.10;1.00;;;;;;4362869;28;654223;-67
2021/09/06 01:29:08;;;;;;;5.05;2.05;;;8.10;1.00;;;;;;4377409;28;654540;-67
2021/09/06 01:31:56;;;;;;;4.97;2.40;;;8.10;1.00;;;;;;4388629;28;655045;-67
2021/09/06 01:34:44;;;;;;;7.83;2.23;;;8.00;1.00;;;;;;4378695;28;654434;-67
2021/09/06 01:37:31;;;;;;;4.60;2.10;;;8.00;1.00;;;;;;4391994;28;654388;-67
2021/09/06 01:40:20;;;;;;;4.70;1.90;;;7.90;1.00;;;;;;4373914;28;654726;-67
2021/09/06 01:43:09;;;;;;;5.57;1.90;;;8.00;1.00;;;;;;4369833;28;654350;-67
2021/09/06 01:45:56;;;;;;;6.77;2.13;;;8.00;1.00;;;;;;4386287;28;655086;-67
2021/09/06 01:48:44;;;;;;;4.77;1.97;;;7.90;1.00;;;;;;4354903;28;655518;-67
2021/09/06 01:51:31;;;;;;;5.13;2.10;;;7.80;1.00;;;;;;4382020;28;655279;-67
2021/09/06 01:54:19;;;;;;;4.50;2.00;;;7.80;1.00;;;;;;4362248;28;655615;-67
2021/09/06 01:57:06;;;;;;;3.50;1.83;;;7.80;1.00;;;;;;4395018;28;654848;-67
2021/09/06 01:59:55;;;;;;;6.40;2.37;;;7.70;1.00;;;;;;4370941;28;655586;-67
2021/09/06 02:02:43;;;;;;;5.50;2.33;;;7.70;1.00;;;;;;4377557;28;654500;-67
2021/09/06 02:05:30;;;;;;;5.47;2.57;;;7.70;1.00;;;;;;4385915;28;655484;-67
2021/09/06 02:08:18;;;;;;;4.97;2.47;;;7.70;1.00;;;;;;4354271;28;654915;-67
2021/09/06 02:11:05;;;;;;;3.30;2.07;;;7.70;1.00;;;;;;4391163;28;655120;-67
2021/09/06 02:13:53;;;;;;;5.73;2.37;;;7.60;1.00;;;;;;4368843;28;654285;-67
2021/09/06 02:16:42;;;;;;;4.63;2.60;;;7.60;1.00;;;;;;4386763;28;656190;-67
2021/09/06 02:19:29;;;;;;;5.50;2.40;;;7.60;1.00;;;;;;4368205;28;655205;-67
2021/09/06 02:22:17;;;;;;;6.03;2.30;;;7.60;1.00;;;;;;4372124;28;654370;-67
2021/09/06 02:25:06;;;;;;;3.73;1.80;;;7.60;1.00;;;;;;4386913;28;656160;-67
2021/09/06 02:27:54;;;;;;;5.57;2.40;;;7.70;1.00;;;;;;4371125;28;654958;-67
2021/09/06 02:30:41;;;;;;;5.32;2.40;;;7.70;1.00;;;;;;4385557;28;654719;-67
2021/09/06 02:33:30;;;;;;;4.67;2.27;;;7.70;1.00;;;;;;4366598;28;655330;-67
2021/09/06 02:36:19;;;;;;;6.63;2.73;;;7.70;1.00;;;;;;4359670;28;654643;-67
2021/09/06 02:39:06;;;;;;;5.33;2.40;;;7.70;1.00;;;;;;4390435;28;654544;-67
2021/09/06 02:41:58;;;;;;;7.60;2.10;;;7.70;1.00;;;;;;4358346;28;655763;-67
2021/09/06 02:44:46;;;;;;;5.17;2.27;;;7.70;1.00;;;;;;4364009;28;654524;-67
2021/09/06 02:47:33;;;;;;;4.53;2.30;;;7.70;1.00;;;;;;4367157;28;654594;-67
2021/09/06 02:50:22;;;;;;;3.13;1.90;;;7.80;1.00;;;;;;4385651;28;654581;-67
2021/09/06 02:53:10;;;;;;;6.10;2.20;;;7.80;1.00;;;;;;4355529;28;655133;-67
2021/09/06 02:55:57;;;;;;;2.83;1.80;;;7.80;1.00;;;;;;4374327;28;654617;-67
2021/09/06 02:58:45;;;;;;;5.83;2.40;;;7.80;1.00;;;;;;4372977;28;655872;-67
2021/09/06 03:01:33;;;;;;;8.35;3.15;;;7.70;1.00;;;;;;4372100;28;655191;-67
2021/09/06 03:04:21;;;;;;;10.30;3.77;;;7.70;1.00;;;;;;4391775;28;654625;-67
2021/09/06 03:07:10;;;;;;;11.18;4.93;;;7.70;1.00;;;;;;4378790;28;655774;-67
2021/09/06 03:09:57;;;;;;;13.80;5.30;;;7.70;1.00;;;;;;4375570;28;655931;-67
2021/09/06 03:12:45;;;;;;;13.13;4.17;;;7.70;1.00;;;;;;4381994;28;656878;-67
2021/09/06 03:15:32;;;;;;;7.90;3.20;;;7.60;1.00;;;;;;4379645;28;655631;-67
2021/09/06 03:18:20;;;;;;;7.97;2.90;;;7.50;1.00;;;;;;4401312;28;655867;-67
2021/09/06 03:21:08;;;;;;;16.33;6.63;;;7.50;1.00;;;;;;4370957;28;654357;-67
2021/09/06 03:23:56;;;;;;;11.93;4.60;;;7.40;1.00;;;;;;4399051;28;655726;-67
2021/09/06 03:26:44;;;;;;;13.40;5.07;;;7.20;1.00;;;;;;4358948;28;656031;-67
2021/09/06 03:29:32;;;;;;;8.33;3.43;;;7.00;1.00;;;;;;4397630;28;655944;-67
2021/09/06 03:32:19;;;;;;;9.40;4.37;;;6.90;1.00;;;;;;4374198;28;656021;-67
2021/09/06 03:35:08;;;;;;;8.43;3.33;;;6.80;1.00;;;;;;4373247;28;653951;-67
2021/09/06 03:37:55;;;;;;;6.87;3.17;;;6.80;1.00;;;;;;4372765;28;655389;-67
2021/09/06 03:40:44;;;;;;;8.73;3.47;;;6.80;3.50;;;;;;4368852;28;654270;-67
2021/09/06 03:43:32;;;;;;;9.93;2.60;;;6.70;1.30;;;;;;4398384;28;654793;-67
2021/09/06 03:46:20;;;;;;;8.63;3.27;;;6.70;8.90;;;;;;4354748;28;655358;-67
2021/09/06 03:49:07;;;;;;;4.10;2.40;;;6.70;7.90;;;;;;4379157;28;654825;-67
2021/09/06 03:51:55;;;;;;;4.37;2.50;;;6.70;17.10;;;;;;4398447;28;655206;-67
2021/09/06 03:54:44;;;;;;;3.72;2.17;;;6.70;17.00;;;;;;4376353;28;655712;-67
2021/09/06 03:57:43;;;;;;;6.23;2.47;;;6.80;18.00;;;;;;4393773;28;655930;-67
2021/09/06 04:00:30;;;;;;;4.57;1.77;;;6.80;18.80;;;;;;4371296;28;656101;-67
2021/09/06 04:03:18;;;;;;;4.37;2.00;;;6.90;19.10;;;;;;4376100;28;655355;-67
2021/09/06 04:06:06;;;;;;;5.70;2.47;;;6.90;17.50;;;;;;4397072;28;656820;-67
2021/09/06 04:08:54;;;;;;;7.10;2.00;;;7.00;15.40;;;;;;4377270;28;656063;-67
2021/09/06 04:11:41;;;;;;;5.80;2.33;;;7.00;13.40;;;;;;4394588;28;655999;-67
2021/09/06 04:14:33;;;;;;;8.50;2.33;;;7.00;9.30;;;;;;4370933;28;655502;-67
2021/09/06 04:17:20;;;;;;;5.18;2.20;;;7.10;5.30;;;;;;4373632;28;656359;-67
2021/09/06 04:20:09;;;;;;;3.60;2.10;;;7.20;2.10;;;;;;4371435;28;654673;-67
2021/09/06 04:22:57;;;;;;;5.83;2.53;;;7.20;1.00;;;;;;4389403;28;654915;-67
2021/09/06 04:25:44;;;;;;;5.43;2.20;;;7.30;1.00;;;;;;4374313;28;656437;-67
2021/09/06 04:28:32;;;;;;;4.30;2.20;;;7.30;1.00;;;;;;4377702;28;654339;-67
2021/09/06 04:31:21;;;;;;;4.87;2.00;;;7.40;1.00;;;;;;4383647;28;656882;-67
2021/09/06 04:34:09;;;;;;;4.57;2.30;;;7.50;1.00;;;;;;4373251;28;655547;-67
2021/09/06 04:36:56;;;;;;;4.70;2.30;;;7.50;1.00;;;;;;4397112;28;654743;-67
2021/09/06 04:39:47;;;;;;;4.67;2.40;;;7.60;1.00;;;;;;4361301;28;655066;-67
2021/09/06 04:42:35;;;;;;;4.13;2.10;;;7.70;1.00;;;;;;4356604;28;656301;-67
2021/09/06 04:45:24;;;;;;;5.33;1.97;;;7.80;1.00;;;;;;4374975;28;654587;-67
2021/09/06 04:48:13;;;;;;;3.00;1.90;;;7.80;1.00;;;;;;4397505;28;654842;-67
2021/09/06 04:51:00;;;;;;;3.70;2.10;;;8.00;1.00;;;;;;4373714;28;656396;-67
2021/09/06 04:53:48;;;;;;;3.43;1.90;;;8.10;1.00;;;;;;4370731;28;654419;-67
2021/09/06 04:56:36;;;;;;;5.10;2.30;;;8.20;1.00;;;;;;4394694;28;655612;-67
2021/09/06 04:59:23;;;;;;;4.27;2.40;;;8.30;1.00;;;;;;4377407;28;655163;-67
2021/09/06 05:02:11;;;;;;;3.13;2.03;;;8.40;1.00;;;;;;4394793;28;654657;-67
2021/09/06 05:05:00;;;;;;;4.50;2.50;;;8.50;1.00;;;;;;4367076;28;654790;-68
2021/09/06 05:07:47;;;;;;;4.38;1.90;;;8.60;1.00;;;;;;4366140;28;654689;-67
2021/09/06 05:10:35;;;;;;;5.03;2.13;;;8.80;1.00;;;;;;4384064;28;655448;-67
2021/09/06 05:13:23;;;;;;;6.10;2.73;;;8.90;1.00;;;;;;4375247;28;655265;-67
2021/09/06 05:16:11;;;;;;;3.43;2.07;;;9.00;1.00;;;;;;4384074;28;654810;-67
2021/09/06 05:18:58;;;;;;;4.73;2.37;;;9.10;1.00;;;;;;4374028;28;654795;-67
2021/09/06 05:21:47;;;;;;;3.70;2.13;;;9.30;1.00;;;;;;4394706;28;654385;-67
2021/09/06 05:24:37;;;;;;;3.37;2.03;;;9.40;1.00;;;;;;4374010;28;655379;-67
2021/09/06 05:27:24;;;;;;;6.13;2.40;;;9.60;1.00;;;;;;4363867;28;655738;-67
2021/09/06 05:30:13;;;;;;;5.90;2.23;;;9.70;1.00;;;;;;4382870;28;655014;-67
2021/09/06 05:33:01;;;;;;;6.73;2.10;;;9.90;1.00;;;;;;4390600;28;655367;-67
2021/09/06 05:35:48;;;;;;;4.68;2.22;;;10.00;1.00;;;;;;4376218;28;654389;-67
2021/09/06 05:38:40;;;;;;;7.77;2.30;;;10.10;1.00;;;;;;4394020;28;655287;-67
2021/09/06 05:41:28;;;;;;;5.27;1.97;;;10.30;1.00;;;;;;4351561;28;656092;-67
2021/09/06 05:44:16;;;;;;;3.77;2.10;;;10.40;1.00;;;;;;4393102;28;655762;-67
2021/09/06 05:47:04;;;;;;;3.53;2.03;;;10.50;1.00;;;;;;4352934;28;656075;-67
2021/09/06 05:49:51;;;;;;;3.40;2.10;;;10.70;1.00;;;;;;4393866;28;655695;-67
2021/09/06 05:52:39;;;;;;;4.50;1.83;;;10.80;1.00;;;;;;4375747;28;655650;-67
2021/09/06 05:55:28;;;;;;;8.80;1.97;;;11.00;1.00;;;;;;4410521;28;656201;-66
2021/09/06 05:58:16;;;;;;;8.10;1.63;;;11.10;1.00;;;;;;4359925;28;656759;-67
2021/09/06 06:01:03;;;;;;;3.57;2.07;;;11.20;1.00;;;;;;4385237;28;655728;-67
2021/09/06 06:03:51;;;;;;;4.23;1.53;;;11.30;1.00;;;;;;4394697;28;655878;-67
2021/09/06 06:06:38;;;;;;;3.20;1.57;;;11.50;1.00;;;;;;4375862;28;655475;-67
2021/09/06 06:09:26;;;;;;;3.77;1.90;;;11.50;99.90;;;;;;4397551;28;656526;-67
2021/09/06 06:12:15;;;;;;;2.87;1.80;;;11.70;99.90;;;;;;4370218;28;656867;-67
2021/09/06 06:15:02;;;;;;;3.67;1.47;;;11.70;99.90;;;;;;4365110;28;657320;-67
2021/09/06 06:17:50;;;;;;;3.73;1.77;;;11.80;99.90;;;;;;4385164;28;656900;-67
2021/09/06 06:20:38;;;;;;;4.27;1.57;;;11.90;99.90;;;;;;4384481;28;656780;-67
2021/09/06 06:23:25;;;;;;;2.50;1.40;;;12.00;99.90;;;;;;4374770;28;657307;-67
2021/09/06 06:26:13;;;;;;;3.40;1.80;;;12.10;99.90;;;;;;4350510;28;657148;-67
2021/09/06 06:29:02;;;;;;;4.77;1.97;;;12.30;99.90;;;;;;4374047;28;657765;-67
2021/09/06 06:31:49;;;;;;;4.57;1.80;;;12.40;99.90;;;;;;4358478;28;657740;-67
2021/09/06 06:34:37;;;;;;;2.97;1.63;;;12.40;99.90;;;;;;4359737;28;656688;-67
2021/09/06 06:37:24;;;;;;;5.13;1.73;;;12.50;99.90;;;;;;4353338;28;657402;-67
2021/09/06 06:40:14;;;;;;;2.40;1.40;;;12.50;99.90;;;;;;4358272;28;656345;-67
2021/09/06 06:43:01;;;;;;;5.97;1.90;;;12.60;99.90;;;;;;4373731;28;656768;-67
2021/09/06 06:45:50;;;;;;;5.53;1.50;;;12.80;99.90;;;;;;4362564;28;657566;-67
2021/09/06 06:48:39;;;;;;;3.37;1.70;;;12.80;99.90;;;;;;4382689;28;656523;-67
2021/09/06 06:51:26;;;;;;;3.07;1.57;;;12.90;99.90;;;;;;4401204;28;657276;-67
2021/09/06 06:54:14;;;;;;;3.03;1.43;;;13.00;99.90;;;;;;4388350;28;656452;-68
2021/09/06 06:57:01;;;;;;;5.57;1.73;;;13.10;99.90;;;;;;4386399;28;656710;-67
2021/09/06 06:59:49;;;;;;;2.93;1.60;;;13.30;99.90;;;;;;4373426;28;656902;-67
2021/09/06 07:02:38;;;;;;;4.82;1.80;;;13.40;99.90;;;;;;4397855;28;656704;-67
2021/09/06 07:05:25;;;;;;;4.20;1.70;;;13.40;87.60;;;;;;4373060;28;657791;-67
2021/09/06 07:08:14;;;;;;;3.10;1.83;;;13.60;5.20;;;;;;4373003;28;656420;-68
2021/09/06 07:11:02;;;;;;;3.63;1.50;;;13.70;8.80;;;;;;4395543;28;655828;-67
2021/09/06 07:13:50;;;;;;;5.00;1.97;;;13.70;7.30;;;;;;4356359;28;656006;-67
2021/09/06 07:16:37;;;;;;;2.57;1.63;;;13.80;1.00;;;;;;4372325;28;655347;-67
2021/09/06 07:19:27;;;;;;;2.90;1.60;;;13.90;1.00;;;;;;4394938;28;656392;-67
2021/09/06 07:22:15;;;;;;;5.43;1.87;;;14.00;1.00;;;;;;4373144;28;655939;-68
2021/09/06 07:25:02;;;;;;;3.20;1.70;;;14.20;1.00;;;;;;4366566;28;655513;-67
2021/09/06 07:27:50;;;;;;;4.00;1.83;;;14.30;1.00;;;;;;4376210;28;657227;-67
2021/09/06 07:30:37;;;;;;;5.10;1.90;;;14.40;1.00;;;;;;4363900;28;655428;-67
2021/09/06 07:33:25;;;;;;;4.43;2.00;;;14.50;1.00;;;;;;4396133;28;656681;-67
2021/09/06 07:36:16;;;;;;;3.40;1.65;;;14.60;1.00;;;;;;4385893;28;655304;-67
2021/09/06 07:39:04;;;;;;;2.57;1.60;;;14.80;1.00;;;;;;4373106;28;655448;-67
2021/09/06 07:41:51;;;;;;;4.77;2.00;;;15.00;1.00;;;;;;4378267;28;656247;-67
2021/09/06 07:44:39;;;;;;;3.00;1.57;;;15.10;1.00;;;;;;4353512;28;656231;-67
2021/09/06 07:47:27;;;;;;;3.70;2.10;;;15.30;1.00;;;;;;4363406;28;655168;-67
2021/09/06 07:50:18;;;;;;;3.23;1.60;;;15.50;1.00;;;;;;4359321;28;656785;-68
2021/09/06 07:53:07;;;;;;;2.77;1.87;;;15.70;1.00;;;;;;4374449;28;655564;-67
2021/09/06 07:55:55;;;;;;;4.30;1.60;;;15.90;99.90;;;;;;4364247;28;656420;-67
2021/09/06 07:58:42;;;;;;;3.75;1.80;;;16.00;99.90;;;;;;4372104;28;656368;-67
2021/09/06 08:01:30;;;;;;;4.33;1.57;;;16.20;99.90;;;;;;4382755;28;657256;-67
2021/09/06 08:04:18;;;;;;;3.10;1.60;;;16.30;99.90;;;;;;4359061;28;657031;-67
2021/09/06 08:07:05;;;;;;;7.23;1.30;;;16.50;28.90;;;;;;4379956;28;657791;-67
2021/09/06 08:09:54;;;;;;;3.00;1.47;;;16.70;1.00;;;;;;4361445;28;656289;-68
2021/09/06 08:12:43;;;;;;;5.60;1.43;;;16.90;1.00;;;;;;4380800;28;655535;-67
2021/09/06 08:15:30;;;;;;;2.70;1.53;;;17.00;1.00;;;;;;4388176;28;656683;-67
2021/09/06 08:18:18;;;;;;;3.63;1.43;;;17.10;1.00;;;;;;4363881;28;655796;-67
2021/09/06 08:21:05;;;;;;;2.33;1.40;;;17.10;1.00;;;;;;4386567;28;657463;-67
2021/09/06 08:23:53;;;;;;;2.27;1.23;;;17.20;99.90;;;;;;4361356;28;655406;-67
2021/09/06 08:26:42;;;;;;;2.73;1.27;;;17.50;99.90;;;;;;4383134;28;656638;-67
2021/09/06 08:29:30;;;;;;;2.20;1.37;;;17.70;1.00;;;;;;4372765;28;657028;-67
2021/09/06 08:32:18;;;;;;;2.37;1.40;;;17.70;99.90;;;;;;4364532;28;655507;-68
2021/09/06 08:35:06;;;;;;;2.50;1.40;;;17.90;99.90;;;;;;4386012;28;657526;-67
2021/09/06 08:37:54;;;;;;;2.37;1.30;;;18.00;85.60;;;;;;4359093;28;657791;-67
2021/09/06 08:40:42;;;;;;;2.93;1.40;;;18.00;1.00;;;;;;4365110;28;656674;-68
2021/09/06 08:43:32;;;;;;;2.93;1.37;;;18.10;1.00;;;;;;4388412;28;656731;-67
2021/09/06 08:46:23;;;;;;;3.50;1.53;;;18.20;99.90;;;;;;4358300;28;656538;-67
2021/09/06 08:49:11;;;;;;;3.17;1.23;;;18.40;99.90;;;;;;4345537;28;657671;-68
2021/09/06 08:51:59;;;;;;;3.57;1.23;;;18.60;99.90;;;;;;4359377;28;657024;-67
2021/09/06 08:54:46;;;;;;;1.88;1.10;;;18.70;99.90;;;;;;4377805;28;656852;-68
2021/09/06 08:57:34;;;;;;;2.70;1.30;;;18.90;93.10;;;;;;4357101;28;657752;-68
2021/09/06 09:00:29;;;;;;;2.50;1.50;;;19.00;1.00;;;;;;4375727;28;656236;-68
2021/09/06 09:03:16;;;;;;;2.03;1.13;;;19.20;1.00;;;;;;4352800;28;655781;-68
2021/09/06 09:06:05;;;;;;;1.57;1.20;;;19.00;1.00;;;;;;4363699;28;655848;-68
2021/09/06 09:08:52;;;;;;;2.70;1.43;;;19.10;1.00;;;;;;4361469;28;655242;-68
2021/09/06 09:11:40;;;;;;;2.20;1.10;;;19.30;1.00;;;;;;4383805;28;655968;-68
2021/09/06 09:14:29;;;;;;;3.83;1.50;;;19.50;99.90;;;;;;4365370;28;656091;-68
2021/09/06 09:17:18;;;;;;;4.10;1.50;;;19.70;99.90;;;;;;4376820;28;656984;-68
2021/09/06 09:20:07;;;;;;;4.67;1.50;;;19.80;99.90;;;;;;4354444;28;657849;-67
2021/09/06 09:22:54;;;;;;;2.10;1.27;;;19.90;99.90;;;;;;4368741;28;657917;-68
2021/09/06 09:25:42;;;;;;;4.07;1.67;;;20.00;99.90;;;;;;4365244;28;656483;-68
2021/09/06 09:28:30;;;;;;;3.40;1.60;;;20.10;99.90;;;;;;4378835;28;657231;-68
2021/09/06 09:31:19;;;;;;;2.77;1.63;;;20.10;21.50;;;;;;4357633;28;656580;-68
2021/09/06 09:34:08;;;;;;;3.90;1.52;;;20.20;1.00;;;;;;4377683;28;656531;-68
2021/09/06 09:36:55;;;;;;;2.90;1.20;;;20.40;49.10;;;;;;4373497;28;656508;-68
2021/09/06 09:39:43;;;;;;;2.57;1.60;;;20.60;86.50;;;;;;4367598;28;656550;-67
2021/09/06 09:42:31;;;;;;;3.70;1.80;;;20.60;1.00;;;;;;4376876;28;657424;-68
2021/09/06 09:45:23;;;;;;;4.60;1.90;;;20.70;1.00;;;;;;4358951;28;655648;-68
2021/09/06 09:48:11;;;;;;;3.20;1.60;;;20.70;1.00;;;;;;4355637;28;656525;-68
2021/09/06 09:51:00;;;;;;;4.60;1.60;;;20.90;1.00;;;;;;4353476;28;655248;-68
2021/09/06 09:53:47;;;;;;;3.50;1.50;;;20.90;1.00;;;;;;4360193;28;655514;-68
2021/09/06 09:56:35;;;;;;;4.13;1.80;;;21.00;1.00;;;;;;4370618;28;656450;-68
2021/09/06 09:59:23;;;;;;;2.97;1.87;;;21.10;1.00;;;;;;4374001;28;655341;-67
2021/09/06 10:02:12;;;;;;;4.50;1.87;;;21.30;1.00;;;;;;4376702;28;656179;-67
2021/09/06 10:05:03;;;;;;;8.10;2.07;;;21.00;1.00;;;;;;4352992;28;656655;-68
2021/09/06 10:07:52;;;;;;;4.07;1.80;;;21.40;1.00;;;;;;4359285;28;656448;-68
2021/09/06 10:10:40;;;;;;;4.00;2.00;;;21.10;1.00;;;;;;4355751;28;656257;-68
2021/09/06 10:13:29;;;;;;;5.23;2.30;;;21.20;1.00;;;;;;4373229;28;658043;-68
2021/09/06 10:16:30;;;;;;;5.07;2.23;;;21.40;99.90;;;;;;4373386;28;655769;-68
2021/09/06 10:19:18;;;;;;;8.87;2.77;;;21.20;1.00;;;;;;4340224;28;656920;-68
2021/09/06 10:22:05;;;;;;;3.43;1.83;;;21.30;99.90;;;;;;4384783;28;656457;-68
2021/09/06 10:25:00;;;;;;;9.20;2.30;;;21.50;1.00;;;;;;4350553;28;656326;-68
2021/09/06 10:27:57;;;;;;;4.73;1.90;;;21.80;99.90;;;;;;4348394;28;655386;-68
2021/09/06 10:30:46;;;;;;;3.60;2.10;;;21.70;99.90;;;;;;4315789;28;657612;-68
2021/09/06 10:33:35;;;;;;;8.13;2.00;;;22.10;99.90;;;;;;4366321;28;656746;-68
2021/09/06 10:36:23;;;;;;;4.70;2.13;;;22.00;99.90;;;;;;4372125;28;656530;-68
2021/09/06 10:39:11;;;;;;;10.30;2.10;;;22.00;99.90;;;;;;4382393;28;657906;-68
2021/09/06 10:42:08;;;;;;;4.87;1.90;;;22.30;99.90;;;;;;4366335;28;657657;-67
2021/09/06 10:44:57;;;;;;;2.60;1.50;;;22.60;99.90;;;;;;4359159;28;657093;-68
2021/09/06 10:47:44;;;;;;;5.03;1.60;;;22.80;99.90;;;;;;4366043;28;657991;-68
2021/09/06 10:50:32;;;;;;;4.73;1.80;;;22.80;50.60;;;;;;4368923;28;656395;-68
2021/09/06 10:53:21;;;;;;;5.10;1.43;;;23.00;99.90;;;;;;4389289;28;657844;-68
2021/09/06 10:56:09;;;;;;;5.63;1.70;;;22.60;1.00;;;;;;4367283;28;657622;-68
2021/09/06 10:58:58;;;;;;;5.33;2.00;;;22.30;1.00;;;;;;4379783;28;655543;-68
2021/09/06 11:01:52;;;;;;;4.43;1.73;;;22.50;1.00;;;;;;4360508;28;655624;-68
2021/09/06 11:04:41;;;;;;;3.63;1.50;;;22.60;35.80;;;;;;4336320;28;656558;-68
2021/09/06 11:07:30;;;;;;;4.83;1.50;;;22.60;1.00;;;;;;4364215;28;656445;-68
2021/09/06 11:10:19;;;;;;;3.47;1.30;;;22.90;1.00;;;;;;4367216;28;655435;-68
2021/09/06 11:13:07;;;;;;;3.00;1.47;;;23.00;1.00;;;;;;4371413;28;655383;-68
2021/09/06 11:15:57;;;;;;;2.50;1.40;;;23.20;1.00;;;;;;4393390;28;656278;-68
2021/09/06 11:18:45;;;;;;;3.23;1.50;;;23.10;1.00;;;;;;4344721;28;657281;-68
2021/09/06 11:21:33;;;;;;;2.63;1.50;;;23.60;1.00;;;;;;4374921;28;655529;-68
2021/09/06 11:24:22;;;;;;;4.10;1.33;;;24.00;1.00;;;;;;4396553;28;656380;-68
2021/09/06 11:27:09;;;;;;;5.17;1.57;;;23.80;1.00;;;;;;4374642;28;656774;-68
2021/09/06 11:29:58;;;;;;;3.07;1.40;;;23.60;1.00;;;;;;4386621;28;655939;-68
2021/09/06 11:32:48;;;;;;;2.33;1.50;;;23.80;1.00;;;;;;4375422;28;656422;-68
2021/09/06 11:35:36;;;;;;;5.63;1.65;;;24.00;1.00;;;;;;4365834;28;656367;-68
2021/09/06 11:38:24;;;;;;;3.10;1.40;;;24.30;1.00;;;;;;4370881;28;656426;-68
2021/09/06 11:41:12;;;;;;;3.17;1.20;;;24.10;1.00;;;;;;4375010;28;655525;-68
2021/09/06 11:43:59;;;;;;;4.72;1.80;;;24.20;1.00;;;;;;4367414;28;656847;-68
2021/09/06 11:46:47;;;;;;;4.07;1.70;;;24.30;1.00;;;;;;4378494;28;656060;-68
2021/09/06 11:49:37;;;;;;;2.47;1.63;;;24.70;1.00;;;;;;4386401;28;657553;-68
2021/09/06 11:52:36;;;;;;;2.85;1.65;;;24.60;1.00;;;;;;4357734;28;656786;-68
2021/09/06 11:55:24;;;;;;;4.20;1.52;;;24.20;1.00;;;;;;4368921;28;655398;-68
2021/09/06 11:58:12;;;;;;;4.05;1.80;;;24.50;1.00;;;;;;4379057;28;656884;-68
2021/09/06 12:01:04;;;;;;;2.13;1.60;;;24.90;1.00;;;;;;4361594;28;655819;-68
2021/09/06 12:03:52;;;;;;;4.47;1.45;;;25.20;1.00;;;;;;4361030;28;655669;-68
2021/09/06 12:06:41;;;;;;;6.68;1.35;;;25.60;1.00;;;;;;4383579;28;656259;-68
2021/09/06 12:09:29;;;;;;;3.75;2.00;;;25.60;99.90;;;;;;4369035;28;655397;-68
2021/09/06 12:12:20;;;;;;;4.32;1.90;;;25.90;99.90;;;;;;4394147;28;656506;-68
2021/09/06 12:15:09;;;;;;;3.40;1.60;;;25.60;99.90;;;;;;4346899;28;656898;-68
2021/09/06 12:18:06;;;;;;;3.35;1.70;;;25.40;99.90;;;;;;4391792;28;657128;-68
2021/09/06 12:21:01;;;;;;;3.08;1.67;;;25.20;99.90;;;;;;4345011;28;658534;-68
2021/09/06 12:23:51;;;;;;;2.95;1.75;;;24.90;99.90;;;;;;4360957;28;656528;-68
2021/09/06 12:26:41;;;;;;;3.40;1.63;;;25.40;99.90;;;;;;4358502;28;656599;-68
2021/09/06 12:29:30;;;;;;;4.40;1.70;;;25.40;99.90;;;;;;4363727;28;656349;-68
2021/09/06 12:32:20;;;;;;;5.53;1.88;;;25.10;99.90;;;;;;4366525;28;656633;-68
2021/09/06 12:35:08;;;;;;;7.50;1.65;;;25.20;99.90;;;;;;4352628;28;656695;-68
2021/09/06 12:37:56;;;;;;;6.60;2.08;;;24.80;99.90;;;;;;4382026;28;656410;-68
2021/09/06 12:40:45;;;;;;;4.63;2.17;;;25.30;99.90;;;;;;4356872;28;656493;-68
2021/09/06 12:43:33;;;;;;;3.88;1.80;;;25.80;99.90;;;;;;4366682;28;656914;-68
2021/09/06 12:46:20;;;;;;;3.78;1.85;;;25.80;99.90;;;;;;4378989;28;657645;-68
2021/09/06 12:49:08;;;;;;;5.63;1.95;;;25.40;99.90;;;;;;4364147;28;656630;-68
2021/09/06 12:51:56;;;;;;;4.85;1.98;;;25.40;99.90;;;;;;4380057;28;657454;-68
2021/09/06 12:54:44;;;;;;;5.22;1.77;;;25.40;99.90;;;;;;4368190;28;657818;-68
2021/09/06 12:57:34;;;;;;;4.05;2.00;;;25.80;99.90;;;;;;4389252;28;657086;-68
2021/09/06 13:00:24;;;;;;;3.83;1.80;;;25.50;99.90;;;;;;4365814;28;657383;-68
2021/09/06 13:03:11;;;;;;;3.05;1.92;;;25.00;99.90;;;;;;4357759;28;656624;-68
2021/09/06 13:05:59;;;;;;;4.43;1.63;;;25.60;99.90;;;;;;4359085;28;656819;-68
2021/09/06 13:08:47;;;;;;;5.03;1.85;;;25.90;99.90;;;;;;4372538;28;656646;-68
2021/09/06 13:11:34;;;;;;;4.55;2.00;;;25.30;99.90;;;;;;4356862;28;658082;-67
2021/09/06 13:14:25;;;;;;;4.50;1.80;;;25.90;99.90;;;;;;4380010;28;656218;-68
2021/09/06 13:17:12;;;;;;;4.03;2.10;;;25.80;99.90;;;;;;4342729;28;656649;-68
2021/09/06 13:20:00;;;;;;;5.90;2.10;;;25.90;99.90;;;;;;4390865;28;657586;-68
2021/09/06 13:22:47;;;;;;;2.50;1.60;;;25.90;99.90;;;;;;4363200;28;656764;-68
2021/09/06 13:25:35;;;;;;;6.05;1.88;;;25.90;99.90;;;;;;4396058;28;657419;-68
2021/09/06 13:28:22;;;;;;;4.25;1.77;;;25.50;99.90;;;;;;4361826;28;656483;-68
2021/09/06 13:31:12;;;;;;;7.00;1.90;;;25.80;99.90;;;;;;4389220;28;658103;-68
2021/09/06 13:34:02;;;;;;;2.67;1.67;;;25.50;99.90;;;;;;4371892;28;657775;-68
2021/09/06 13:36:49;;;;;;;9.60;1.88;;;25.90;99.90;;;;;;4365637;28;657597;-68
2021/09/06 13:39:37;;;;;;;10.75;2.38;;;26.00;99.90;;;;;;4385239;28;656718;-68
2021/09/06 13:42:25;;;;;;;3.70;1.70;;;25.50;99.90;;;;;;4388821;28;659004;-68
2021/09/06 13:45:13;;;;;;;3.40;1.70;;;25.80;99.90;;;;;;4361310;28;656353;-68
2021/09/06 13:48:02;;;;;;;3.38;1.70;;;26.10;99.90;;;;;;4392150;28;657042;-68
2021/09/06 13:50:49;;;;;;;5.82;1.70;;;26.10;99.90;;;;;;4366822;28;657777;-68
2021/09/06 13:53:39;;;;;;;4.68;1.60;;;25.90;99.90;;;;;;4377202;28;656653;-68
2021/09/06 13:56:30;;;;;;;3.45;1.70;;;25.60;99.90;;;;;;4367436;28;656994;-68
2021/09/06 13:59:19;;;;;;;3.00;1.83;;;25.70;99.90;;;;;;4369872;28;656700;-68
2021/09/06 14:02:07;;;;;;;3.75;2.00;;;26.10;99.90;;;;;;4380414;28;656321;-68
2021/09/06 14:04:56;;;;;;;3.78;1.90;;;26.30;99.90;;;;;;4368998;28;657482;-68
2021/09/06 14:07:44;;;;;;;2.83;1.90;;;26.30;99.90;;;;;;4363888;28;656721;-68
2021/09/06 14:10:31;;;;;;;3.35;1.75;;;26.30;99.90;;;;;;4391474;28;656795;-68
2021/09/06 14:13:19;;;;;;;3.28;1.60;;;26.20;99.90;;;;;;4362448;28;658284;-68
2021/09/06 14:16:07;;;;;;;4.47;1.60;;;26.90;99.90;;;;;;4398604;28;656854;-69
2021/09/06 14:18:54;;;;;;;5.05;1.40;;;27.50;99.90;;;;;;4374033;28;657393;-69
2021/09/06 14:21:44;;;;;;;3.28;1.80;;;28.00;99.90;;;;;;4392992;28;656575;-69
2021/09/06 14:24:32;;;;;;;3.08;1.55;;;28.30;99.90;;;;;;4398929;28;656898;-68
2021/09/06 14:27:19;;;;;;;3.58;1.90;;;28.50;99.90;;;;;;4371043;28;656883;-69
2021/09/06 14:30:08;;;;;;;6.88;1.80;;;28.60;99.90;;;;;;4379797;28;656693;-69
2021/09/06 14:32:56;;;;;;;4.60;1.85;;;28.50;99.90;;;;;;4390134;28;656231;-69
2021/09/06 14:35:44;;;;;;;2.95;1.88;;;28.10;85.40;;;;;;4343341;28;656267;-68